Beira, Mozambique
Current Conditions -  °F | °C
As of 10:00 PM on Friday 31 Oct 2014 (Local Time) from FQBR Reporting Station
Few Clouds Few Clouds  
Wind Chill: 77°   Ceiling: Unl
Heat Index: 78°   Visibility: 6mi
Dew Point: 72°   Wind: 13mph
Humidity: 83%   Direction: 60°ENE
Pressure: 29.91"   Gusts: NA
Location:  19.83°S, 34.84°E
Report Text: FQBR 312000Z 06011KT 9999 FEW018 25/22 Q1013
Loading
Personal Weather Stations






























Interactive Weather Map
Tropical Storm Tracking
New forecast layout! Learn more

10-Day Weather Forecast

Advertisements
Track Severe Weather on mobile